Main page
METAR-TAF:

METAR-TAF

Airports :

Mönchengladbach Airport

Mönchengladbach, Germany

latitude: 51-13-49N, longitude: 006-30-16E, elevation: 38 m

Current weather observation

The report was made 19 minutes ago, at 23:50 UTC
Wind 10 kt from the North/Northwest
Temperature 4°C
Humidity 93%
Pressure 1006 hPa
Visibility: 5000 m

METAR: EDLN 172350Z AUTO 34010KT 5000 // BKN007/// OVC014/// 04/03 Q1006

Time: 01:09 (00:09 UTC)

Forecast

The report was made 7 hours and 9 minutes ago, at 17:00 UTC
Forecast valid from 17 at 18 UTC to 18 at 03 UTC
Wind 8 kt from the North/Northwest
Visibility: 9000 m
Broken clouds at a height of 4000 ft
Temporary
from 17 at 19 UTC to 17 at 23 UTC
rain
Becoming
from 17 at 21 UTC to 17 at 24 UTC
Visibility: 3500 m
Broken clouds at a height of 900 ft
mist

TAF: EDLN 171700Z 1718/1803 34008KT 9000 BKN040 TEMPO 1719/1723 RA BECMG 1721/1724 3500 BR BKN009

Weather observations and forecasts of more than 4000 airports (METAR and TAF reports).

The available stations are represented by yellow and red dots on the map.

Hover mouse over dot to see the name of the station.

Then click to see weather observations and forecasts.

To change the map : click on the green buttons with a black cross to zoom in, on the green button with a dash to zoom out, or on the green arrows for adjacent maps.


METAR-TAF: